createdAt,value
2018-03-15T00:01:20.790Z,2.80
2018-03-15T00:03:49.463Z,2.80
2018-03-15T00:06:19.952Z,2.90
2018-03-15T00:08:50.745Z,2.90
2018-03-15T00:11:19.014Z,2.90
2018-03-15T00:13:47.262Z,2.90
2018-03-15T00:16:15.884Z,2.80
2018-03-15T00:18:44.145Z,2.90
2018-03-15T00:21:12.487Z,2.90
2018-03-15T00:23:40.945Z,2.80
2018-03-15T00:26:09.211Z,2.80
2018-03-15T00:28:37.477Z,2.80
2018-03-15T00:31:05.781Z,2.90
2018-03-15T00:33:38.589Z,2.80
2018-03-15T00:36:07.516Z,2.80
2018-03-15T00:38:35.775Z,2.80
2018-03-15T00:41:04.022Z,2.80
2018-03-15T00:43:34.195Z,2.90
2018-03-15T00:46:02.532Z,3.00
2018-03-15T00:48:30.809Z,3.00
2018-03-15T00:50:59.220Z,2.90
2018-03-15T00:53:27.484Z,2.80
2018-03-15T00:55:55.878Z,2.80
2018-03-15T00:58:25.737Z,2.70
2018-03-15T01:00:54.009Z,2.60
2018-03-15T01:03:23.036Z,2.50
2018-03-15T01:05:51.316Z,2.50
2018-03-15T01:08:20.322Z,2.50
2018-03-15T01:10:51.226Z,2.50
2018-03-15T01:13:19.866Z,2.30
2018-03-15T01:15:48.940Z,1.80
2018-03-15T01:18:17.198Z,1.80
2018-03-15T01:20:45.726Z,1.90
2018-03-15T01:23:14.758Z,1.80
2018-03-15T01:25:43.041Z,2.10
2018-03-15T01:28:11.569Z,2.10
2018-03-15T01:30:39.844Z,1.90
2018-03-15T01:33:11.170Z,1.90
2018-03-15T01:35:39.880Z,1.90
2018-03-15T01:38:08.919Z,2.30
2018-03-15T01:40:37.223Z,2.30
2018-03-15T01:43:05.532Z,2.00
2018-03-15T01:45:35.730Z,2.00
2018-03-15T01:48:04.212Z,1.70
2018-03-15T01:50:32.693Z,1.50
2018-03-15T01:53:00.959Z,1.60
2018-03-15T01:55:29.217Z,1.50
2018-03-15T01:57:57.736Z,1.80
2018-03-15T02:00:28.624Z,1.90
2018-03-15T02:02:56.924Z,2.00
2018-03-15T02:05:25.616Z,1.80
2018-03-15T02:07:53.879Z,1.90
2018-03-15T02:10:22.134Z,1.70
2018-03-15T02:12:51.227Z,1.30
2018-03-15T02:15:20.269Z,1.30
2018-03-15T02:17:48.540Z,1.20
2018-03-15T02:20:16.858Z,1.10
2018-03-15T02:22:46.592Z,1.30
2018-03-15T02:25:15.383Z,1.20
2018-03-15T02:27:43.925Z,1.10
2018-03-15T02:30:12.188Z,1.10
2018-03-15T02:32:40.455Z,1.00
2018-03-15T02:35:09.055Z,1.00
2018-03-15T02:37:38.089Z,1.00
2018-03-15T02:40:07.106Z,1.00
2018-03-15T02:42:35.622Z,0.90
2018-03-15T02:45:03.881Z,0.80
2018-03-15T02:47:35.798Z,0.80
2018-03-15T02:50:05.978Z,0.70
2018-03-15T02:52:34.259Z,0.70
2018-03-15T02:55:02.522Z,0.60
2018-03-15T02:57:30.914Z,0.60
2018-03-15T02:59:59.172Z,0.70
2018-03-15T03:02:28.943Z,0.70
2018-03-15T03:04:57.377Z,0.60
2018-03-15T03:07:25.631Z,0.60
2018-03-15T03:09:53.916Z,0.50
2018-03-15T03:12:22.398Z,0.40
2018-03-15T03:14:52.362Z,0.40
2018-03-15T03:17:21.382Z,0.30
2018-03-15T03:19:49.723Z,0.30
2018-03-15T03:22:18.761Z,0.20
2018-03-15T03:24:47.779Z,0.20
2018-03-15T03:27:17.705Z,0.10
2018-03-15T03:29:45.975Z,0.10
2018-03-15T03:32:14.238Z,0.00
2018-03-15T03:34:42.525Z,0.00
2018-03-15T03:37:10.807Z,0.00
2018-03-15T03:39:39.539Z,0.00
2018-03-15T03:42:07.842Z,0.00
2018-03-15T03:44:36.114Z,0.00
2018-03-15T03:47:04.369Z,0.00
2018-03-15T03:49:33.166Z,-0.10
2018-03-15T03:52:04.509Z,-0.10
2018-03-15T03:54:32.770Z,-0.20
2018-03-15T03:57:01.559Z,-0.10
2018-03-15T03:59:29.819Z,-0.20
2018-03-15T04:01:59.042Z,-0.20
2018-03-15T04:04:27.876Z,-0.20
2018-03-15T04:06:56.144Z,-0.20
2018-03-15T04:09:24.410Z,-0.40
2018-03-15T04:11:52.712Z,-0.40
2018-03-15T04:14:20.976Z,-0.40
2018-03-15T04:16:50.040Z,-0.40
2018-03-15T04:19:19.684Z,-0.40
2018-03-15T04:21:47.968Z,-0.40
2018-03-15T04:24:16.251Z,-0.50
2018-03-15T04:26:44.710Z,-0.40
2018-03-15T04:29:13.457Z,-0.30
2018-03-15T04:31:41.746Z,-0.40
2018-03-15T04:34:10.048Z,-0.40
2018-03-15T04:36:38.320Z,-0.30
2018-03-15T04:39:06.588Z,0.10
2018-03-15T04:41:36.220Z,0.30
2018-03-15T04:44:04.504Z,0.40
2018-03-15T04:46:32.748Z,0.10
2018-03-15T04:49:01.061Z,-0.40
2018-03-15T04:51:30.567Z,-0.50
2018-03-15T04:54:00.427Z,-0.70
2018-03-15T04:56:28.897Z,-0.70
2018-03-15T04:58:57.924Z,-0.60
2018-03-15T05:01:26.225Z,-0.70
2018-03-15T05:03:54.578Z,-0.50
2018-03-15T05:06:23.645Z,-0.10
2018-03-15T05:08:51.936Z,0.30
2018-03-15T05:11:20.588Z,0.20
2018-03-15T05:13:49.622Z,0.60
2018-03-15T05:16:19.495Z,0.60
2018-03-15T05:18:49.071Z,0.00
2018-03-15T05:21:17.339Z,0.00
2018-03-15T05:23:45.589Z,0.00
2018-03-15T05:26:14.017Z,0.10
2018-03-15T05:28:43.756Z,-0.10
2018-03-15T05:31:12.045Z,0.40
2018-03-15T05:33:40.334Z,0.40
2018-03-15T05:36:08.607Z,0.60
2018-03-15T05:38:36.873Z,0.80
2018-03-15T05:41:05.965Z,0.70
2018-03-15T05:43:34.768Z,0.70
2018-03-15T05:46:03.047Z,0.70
2018-03-15T05:48:31.817Z,0.70
2018-03-15T05:51:00.092Z,0.70
2018-03-15T05:53:30.874Z,0.70
2018-03-15T05:56:00.890Z,0.60
2018-03-15T05:58:29.147Z,0.50
2018-03-15T06:00:58.009Z,0.50
2018-03-15T06:03:26.560Z,0.60
2018-03-15T06:05:55.582Z,0.80
2018-03-15T06:08:24.312Z,0.80
2018-03-15T06:10:52.681Z,1.00
2018-03-15T06:13:20.944Z,1.00
2018-03-15T06:15:49.220Z,1.10
2018-03-15T06:18:17.756Z,1.10
2018-03-15T06:20:47.539Z,1.10
2018-03-15T06:23:15.917Z,1.10
2018-03-15T06:25:44.441Z,1.20
2018-03-15T06:28:13.497Z,1.60
2018-03-15T06:30:44.029Z,1.60
2018-03-15T06:33:13.235Z,1.70
2018-03-15T06:35:41.507Z,1.80
2018-03-15T06:38:09.866Z,2.00
2018-03-15T06:40:38.370Z,2.00
2018-03-15T06:43:06.638Z,2.00
2018-03-15T06:45:35.893Z,2.00
2018-03-15T06:48:04.920Z,1.90
2018-03-15T06:50:33.265Z,2.10
2018-03-15T06:53:01.601Z,2.30
2018-03-15T06:55:31.289Z,2.40
2018-03-15T06:58:01.904Z,2.50
2018-03-15T07:00:30.169Z,2.70
2018-03-15T07:02:58.694Z,2.80
2018-03-15T07:05:26.953Z,2.90
2018-03-15T07:07:56.038Z,3.10
2018-03-15T07:10:25.654Z,3.20
2018-03-15T07:12:53.940Z,3.10
2018-03-15T07:15:22.250Z,3.10
2018-03-15T07:17:50.865Z,3.20
2018-03-15T07:20:19.152Z,3.30
2018-03-15T07:22:50.152Z,3.90
2018-03-15T07:25:19.272Z,3.80
2018-03-15T07:27:47.550Z,3.80
2018-03-15T07:30:15.813Z,3.50
2018-03-15T07:32:44.462Z,3.80
2018-03-15T07:35:13.634Z,4.60
2018-03-15T07:37:41.945Z,4.60
2018-03-15T07:40:10.242Z,4.70
2018-03-15T07:42:39.281Z,4.30
2018-03-15T07:45:07.562Z,4.20
2018-03-15T07:47:36.064Z,4.80
2018-03-15T07:50:04.438Z,4.60
2018-03-15T07:52:33.468Z,5.10
2018-03-15T07:55:01.901Z,5.10
2018-03-15T07:57:34.233Z,4.90
2018-03-15T08:00:02.504Z,4.90
2018-03-15T08:02:31.042Z,5.00
2018-03-15T08:04:59.361Z,5.00
2018-03-15T08:07:28.425Z,5.10
2018-03-15T08:09:58.430Z,5.10
2018-03-15T08:12:26.894Z,5.90
2018-03-15T08:14:55.159Z,6.60
2018-03-15T08:17:23.481Z,6.60
2018-03-15T08:19:52.529Z,6.20
2018-03-15T08:22:21.531Z,6.10
2018-03-15T08:24:50.132Z,6.40
2018-03-15T08:27:18.395Z,6.60
2018-03-15T08:29:46.668Z,6.80
2018-03-15T08:32:15.151Z,6.70
2018-03-15T08:34:43.432Z,6.90
2018-03-15T08:37:14.262Z,6.60
2018-03-15T08:39:43.231Z,6.70
2018-03-15T08:42:12.240Z,7.30
2018-03-15T08:44:40.566Z,7.30
2018-03-15T08:47:09.621Z,6.80
2018-03-15T08:49:37.893Z,6.80
2018-03-15T08:52:06.195Z,6.80
2018-03-15T08:54:36.950Z,7.10
2018-03-15T08:57:06.029Z,7.10
2018-03-15T08:59:36.337Z,7.10
2018-03-15T09:02:05.380Z,7.10
2018-03-15T09:04:33.644Z,7.20
2018-03-15T09:07:03.008Z,7.00
2018-03-15T09:09:31.640Z,6.90
2018-03-15T09:11:59.959Z,7.00
2018-03-15T09:14:29.016Z,6.60
2018-03-15T09:16:57.363Z,6.70
2018-03-15T09:19:25.660Z,6.80
2018-03-15T09:21:53.924Z,7.30
2018-03-15T09:24:22.995Z,7.50
2018-03-15T09:26:55.027Z,7.50
2018-03-15T09:29:23.594Z,7.50
2018-03-15T09:31:52.357Z,7.90
2018-03-15T09:34:21.483Z,8.80
2018-03-15T09:36:49.716Z,8.80
2018-03-15T09:39:20.597Z,8.30
2018-03-15T09:41:48.863Z,8.30
2018-03-15T09:44:17.138Z,8.90
2018-03-15T09:46:45.553Z,9.30
2018-03-15T09:49:13.830Z,9.40
2018-03-15T09:51:42.414Z,9.10
2018-03-15T09:54:11.212Z,8.80
2018-03-15T09:56:44.831Z,8.30
2018-03-15T09:59:13.389Z,8.30
2018-03-15T10:01:44.292Z,9.20
2018-03-15T10:04:14.323Z,9.00
2018-03-15T10:06:42.611Z,9.20
2018-03-15T10:09:10.925Z,8.80
2018-03-15T10:11:40.958Z,8.50
2018-03-15T10:14:10.002Z,9.00
2018-03-15T10:16:42.922Z,8.90
2018-03-15T10:19:11.230Z,8.90
2018-03-15T10:21:39.554Z,8.60
2018-03-15T10:24:07.934Z,8.50
2018-03-15T10:26:36.202Z,9.40
2018-03-15T10:29:04.614Z,9.90
2018-03-15T10:31:34.180Z,9.80
2018-03-15T10:34:02.482Z,9.80
2018-03-15T10:36:30.785Z,10.00
2018-03-15T10:38:59.340Z,9.80
2018-03-15T10:41:29.602Z,9.60
2018-03-15T10:43:57.894Z,9.60
2018-03-15T10:46:26.219Z,11.00
2018-03-15T10:48:54.581Z,10.40
2018-03-15T10:51:22.895Z,11.20
2018-03-15T10:53:53.587Z,11.70
2018-03-15T10:56:21.886Z,11.00
2018-03-15T10:58:50.157Z,10.70
2018-03-15T11:01:22.234Z,11.80
2018-03-15T11:03:51.101Z,11.80
2018-03-15T11:06:26.012Z,12.00
2018-03-15T11:08:58.197Z,10.80
2018-03-15T11:11:26.674Z,10.60
2018-03-15T11:13:54.974Z,11.00
2018-03-15T11:16:27.629Z,11.60
2018-03-15T11:18:55.907Z,11.50
2018-03-15T11:21:24.273Z,10.60
2018-03-15T11:23:52.862Z,11.20
2018-03-15T11:26:21.058Z,11.10
2018-03-15T11:28:49.910Z,11.60
2018-03-15T11:31:18.998Z,11.20
2018-03-15T11:33:47.338Z,11.00
2018-03-15T11:36:17.586Z,10.80
2018-03-15T11:38:46.651Z,10.70
2018-03-15T11:41:17.962Z,10.70
2018-03-15T11:43:47.467Z,10.60
2018-03-15T11:46:15.841Z,10.80
2018-03-15T11:48:45.001Z,10.80
2018-03-15T11:51:13.389Z,10.80
2018-03-15T11:53:43.414Z,11.20
2018-03-15T11:56:11.753Z,11.70
2018-03-15T11:58:40.895Z,11.80
2018-03-15T12:01:09.229Z,11.70
2018-03-15T12:03:38.855Z,12.20
2018-03-15T12:06:09.767Z,12.20
2018-03-15T12:08:38.939Z,12.50
2018-03-15T12:11:07.258Z,12.70
2018-03-15T12:13:36.118Z,12.20
2018-03-15T12:16:04.663Z,13.00
2018-03-15T12:18:33.900Z,12.00
2018-03-15T12:21:02.212Z,12.70
2018-03-15T12:23:31.846Z,12.80
2018-03-15T12:26:00.253Z,12.80
2018-03-15T12:28:28.787Z,13.00
2018-03-15T12:30:57.942Z,13.20
2018-03-15T12:33:27.785Z,12.60
2018-03-15T12:35:56.944Z,12.40
2018-03-15T12:38:25.342Z,12.40
2018-03-15T12:40:53.602Z,13.00
2018-03-15T12:43:22.508Z,13.40
2018-03-15T12:45:50.828Z,12.40
2018-03-15T12:48:19.120Z,12.90
2018-03-15T12:50:47.543Z,12.60
2018-03-15T12:53:15.847Z,12.90
2018-03-15T12:55:45.679Z,13.30
2018-03-15T12:58:15.131Z,13.30
2018-03-15T13:00:44.188Z,12.40
2018-03-15T13:03:12.456Z,12.30
2018-03-15T13:05:40.883Z,12.00
2018-03-15T13:08:13.415Z,12.50
2018-03-15T13:10:41.719Z,12.50
2018-03-15T13:13:10.119Z,12.20
2018-03-15T13:15:38.414Z,12.40
2018-03-15T13:18:07.478Z,12.20
2018-03-15T13:20:35.765Z,12.20
2018-03-15T13:23:04.855Z,12.20
2018-03-15T13:25:33.342Z,11.90
2018-03-15T13:28:01.618Z,11.90
2018-03-15T13:30:31.402Z,11.90
2018-03-15T13:33:00.220Z,12.00
2018-03-15T13:35:28.492Z,12.10
2018-03-15T13:37:57.902Z,12.10
2018-03-15T13:40:26.262Z,11.90
2018-03-15T13:42:58.451Z,12.00
2018-03-15T13:45:27.754Z,11.90
2018-03-15T13:47:56.066Z,12.20
2018-03-15T13:50:24.331Z,12.20
2018-03-15T13:52:53.626Z,11.80
2018-03-15T13:55:22.670Z,11.80
2018-03-15T13:57:52.589Z,11.80
2018-03-15T14:00:22.114Z,11.60
2018-03-15T14:02:50.377Z,11.80
2018-03-15T14:05:18.686Z,11.70
2018-03-15T14:07:47.870Z,11.60
2018-03-15T14:10:16.495Z,11.50
2018-03-15T14:12:45.516Z,11.70
2018-03-15T14:15:13.877Z,11.70
2018-03-15T14:17:42.809Z,11.60
2018-03-15T14:20:11.131Z,11.90
2018-03-15T14:22:40.698Z,11.60
2018-03-15T14:25:09.016Z,11.70
2018-03-15T14:27:37.307Z,11.70
2018-03-15T14:30:05.941Z,11.60
2018-03-15T14:32:34.247Z,11.60
2018-03-15T14:35:05.634Z,11.70
2018-03-15T14:37:34.132Z,11.70
2018-03-15T14:40:02.496Z,11.70
2018-03-15T14:42:30.754Z,11.70
2018-03-15T14:45:00.076Z,11.60
2018-03-15T14:47:28.519Z,11.70
2018-03-15T14:49:57.567Z,11.60
2018-03-15T14:52:26.079Z,11.70
2018-03-15T14:54:54.366Z,11.40
2018-03-15T14:57:22.875Z,11.30
2018-03-15T14:59:52.000Z,11.30
2018-03-15T15:02:21.028Z,11.00
2018-03-15T15:04:49.340Z,11.00
2018-03-15T15:07:17.787Z,11.30
2018-03-15T15:09:47.273Z,11.20
2018-03-15T15:12:16.391Z,11.10
2018-03-15T15:14:45.186Z,11.00
2018-03-15T15:17:13.602Z,10.90
2018-03-15T15:19:41.902Z,11.00
2018-03-15T15:22:10.216Z,11.00
2018-03-15T15:24:40.045Z,11.20
2018-03-15T15:27:09.796Z,11.10
2018-03-15T15:29:38.155Z,11.00
2018-03-15T15:32:06.461Z,10.90
2018-03-15T15:34:34.774Z,10.90
2018-03-15T15:37:04.184Z,11.00
2018-03-15T15:39:33.555Z,10.80
2018-03-15T15:42:02.659Z,10.80
2018-03-15T15:44:31.770Z,10.70
2018-03-15T15:47:00.068Z,10.60
2018-03-15T15:49:28.366Z,10.60
2018-03-15T15:51:58.224Z,10.50
2018-03-15T15:54:27.300Z,10.50
2018-03-15T15:56:56.891Z,10.40
2018-03-15T15:59:26.430Z,10.50
2018-03-15T16:01:55.997Z,10.40
2018-03-15T16:04:24.445Z,10.40
2018-03-15T16:06:53.095Z,10.30
2018-03-15T16:09:21.399Z,10.30
2018-03-15T16:11:49.668Z,10.20
2018-03-15T16:14:19.731Z,10.20
2018-03-15T16:16:50.280Z,10.10
2018-03-15T16:19:18.732Z,10.10
2018-03-15T16:21:48.221Z,10.10
2018-03-15T16:24:17.344Z,10.10
2018-03-15T16:26:46.022Z,10.10
2018-03-15T16:29:14.517Z,10.10
2018-03-15T16:31:42.848Z,10.00
2018-03-15T16:34:11.119Z,10.00
2018-03-15T16:36:40.160Z,9.90
2018-03-15T16:39:08.497Z,9.90
2018-03-15T16:41:37.591Z,9.90
2018-03-15T16:44:05.901Z,9.80
2018-03-15T16:46:34.245Z,9.80
2018-03-15T16:49:02.505Z,9.70
2018-03-15T16:51:31.883Z,9.60
2018-03-15T16:54:00.235Z,9.60
2018-03-15T16:56:28.494Z,9.70
2018-03-15T16:58:57.017Z,9.70
2018-03-15T17:01:25.294Z,9.60
2018-03-15T17:03:53.897Z,9.60
2018-03-15T17:06:23.176Z,9.60
2018-03-15T17:08:51.445Z,9.60
2018-03-15T17:11:19.867Z,9.60
2018-03-15T17:13:48.304Z,9.60
2018-03-15T17:16:19.433Z,9.60
2018-03-15T17:18:48.438Z,9.50
2018-03-15T17:21:16.746Z,9.60
2018-03-15T17:23:45.782Z,9.50
2018-03-15T17:26:14.045Z,9.50
2018-03-15T17:28:42.591Z,9.40
2018-03-15T17:31:11.748Z,9.40
2018-03-15T17:33:40.012Z,9.50
2018-03-15T17:36:08.639Z,9.40
2018-03-15T17:38:36.941Z,9.40
2018-03-15T17:41:13.580Z,9.40
2018-03-15T17:43:41.844Z,9.40
2018-03-15T17:46:10.111Z,9.40
2018-03-15T17:48:38.795Z,9.30
2018-03-15T17:51:07.056Z,9.30
2018-03-15T17:53:35.417Z,9.30
2018-03-15T17:56:04.113Z,9.30
2018-03-15T17:58:33.274Z,9.20
2018-03-15T18:01:02.309Z,9.20
2018-03-15T18:03:30.642Z,9.20
2018-03-15T18:06:01.482Z,9.20
2018-03-15T18:08:29.737Z,9.20
2018-03-15T18:10:58.208Z,9.10
2018-03-15T18:13:26.493Z,9.00
2018-03-15T18:15:54.820Z,9.00
2018-03-15T18:18:23.654Z,9.00
2018-03-15T18:20:51.954Z,9.00
2018-03-15T18:23:20.208Z,9.00
2018-03-15T18:25:48.707Z,8.90
2018-03-15T18:28:17.001Z,8.90
2018-03-15T18:30:48.699Z,8.90
2018-03-15T18:33:17.329Z,8.80
2018-03-15T18:35:46.830Z,8.90
2018-03-15T18:38:15.084Z,8.80
2018-03-15T18:40:43.562Z,8.80
2018-03-15T18:43:13.469Z,8.80
2018-03-15T18:45:41.740Z,8.80
2018-03-15T18:48:10.242Z,8.80
2018-03-15T18:50:38.519Z,8.80
2018-03-15T18:53:06.812Z,8.80
2018-03-15T18:55:37.833Z,8.80
2018-03-15T18:58:06.195Z,8.70
2018-03-15T19:00:34.458Z,8.70
2018-03-15T19:03:04.194Z,8.70
2018-03-15T19:05:32.457Z,8.70
2018-03-15T19:08:03.052Z,8.70
2018-03-15T19:10:32.120Z,8.70
2018-03-15T19:13:00.411Z,8.60
2018-03-15T19:15:29.451Z,8.70
2018-03-15T19:17:57.752Z,8.60
2018-03-15T19:20:27.974Z,8.70
2018-03-15T19:22:56.283Z,8.60
2018-03-15T19:25:25.664Z,8.60
2018-03-15T19:27:53.922Z,8.60
2018-03-15T19:30:23.064Z,8.60
2018-03-15T19:32:52.915Z,8.50
2018-03-15T19:35:21.175Z,8.50
2018-03-15T19:37:49.539Z,8.50
2018-03-15T19:40:18.768Z,8.50
2018-03-15T19:42:47.027Z,8.40
2018-03-15T19:45:20.526Z,8.40
2018-03-15T19:47:48.883Z,8.40
2018-03-15T19:50:17.160Z,8.40
2018-03-15T19:52:45.465Z,8.40
2018-03-15T19:55:17.526Z,8.40
2018-03-15T19:57:45.807Z,8.40
2018-03-15T20:00:14.281Z,8.40
2018-03-15T20:02:42.553Z,8.40
2018-03-15T20:05:10.826Z,8.50
2018-03-15T20:07:39.160Z,8.40
2018-03-15T20:10:08.515Z,8.40
2018-03-15T20:12:36.838Z,8.40
2018-03-15T20:15:06.213Z,8.40
2018-03-15T20:17:34.530Z,8.40
2018-03-15T20:20:03.597Z,8.30
2018-03-15T20:22:38.458Z,8.30
2018-03-15T20:25:07.481Z,8.30
2018-03-15T20:27:41.458Z,8.30
2018-03-15T20:30:10.522Z,8.30
2018-03-15T20:32:46.562Z,8.20
2018-03-15T20:35:14.825Z,8.20
2018-03-15T20:37:46.909Z,8.10
2018-03-15T20:40:20.905Z,8.10
2018-03-15T20:42:50.026Z,8.10
2018-03-15T20:45:23.891Z,8.10
2018-03-15T20:47:57.950Z,8.10
2018-03-15T20:50:26.224Z,8.10
2018-03-15T20:52:57.185Z,8.10
2018-03-15T20:55:25.488Z,8.00
2018-03-15T20:57:54.525Z,8.10
2018-03-15T21:00:22.801Z,8.00
2018-03-15T21:02:52.217Z,8.00
2018-03-15T21:05:20.551Z,8.00
2018-03-15T21:07:48.825Z,7.90
2018-03-15T21:10:17.124Z,7.80
2018-03-15T21:12:45.384Z,7.70
2018-03-15T21:15:13.712Z,7.50
2018-03-15T21:17:42.629Z,7.50
2018-03-15T21:20:10.907Z,7.30
2018-03-15T21:22:39.429Z,7.30
2018-03-15T21:25:07.824Z,7.30
2018-03-15T21:27:36.086Z,7.20
2018-03-15T21:30:05.974Z,7.20
2018-03-15T21:32:34.262Z,7.20
2018-03-15T21:35:03.294Z,7.10
2018-03-15T21:37:31.549Z,7.10
2018-03-15T21:39:59.862Z,7.10
2018-03-15T21:42:30.750Z,7.10
2018-03-15T21:44:59.013Z,7.00
2018-03-15T21:47:27.302Z,7.00
2018-03-15T21:49:55.594Z,7.00
2018-03-15T21:52:24.510Z,6.80
2018-03-15T21:54:55.025Z,6.70
2018-03-15T21:57:24.800Z,6.50
2018-03-15T21:59:53.072Z,6.50
2018-03-15T22:02:21.386Z,6.40
2018-03-15T22:04:49.660Z,6.30
2018-03-15T22:07:22.536Z,6.30
2018-03-15T22:09:50.791Z,6.40
2018-03-15T22:12:19.071Z,6.30
2018-03-15T22:14:47.600Z,6.50
2018-03-15T22:17:16.388Z,6.40
2018-03-15T22:19:46.241Z,6.30
2018-03-15T22:22:14.556Z,6.30
2018-03-15T22:24:43.415Z,6.40
2018-03-15T22:27:11.749Z,6.30
2018-03-15T22:29:40.200Z,6.20
2018-03-15T22:32:11.534Z,6.10
2018-03-15T22:34:39.802Z,6.10
2018-03-15T22:37:08.225Z,6.10
2018-03-15T22:39:36.499Z,6.10
2018-03-15T22:42:04.813Z,6.10
2018-03-15T22:44:33.340Z,6.10
2018-03-15T22:47:01.595Z,6.00
2018-03-15T22:49:29.854Z,6.10
2018-03-15T22:51:58.369Z,6.00
2018-03-15T22:54:26.632Z,6.00
2018-03-15T22:56:54.927Z,6.00
2018-03-15T22:59:23.329Z,6.00
2018-03-15T23:01:51.599Z,6.00
2018-03-15T23:04:19.879Z,6.00
2018-03-15T23:06:48.187Z,6.10
2018-03-15T23:09:16.592Z,6.00
2018-03-15T23:11:44.855Z,5.90
2018-03-15T23:14:14.733Z,5.90
2018-03-15T23:16:42.991Z,5.80
2018-03-15T23:19:12.014Z,5.70
2018-03-15T23:21:41.503Z,5.70
2018-03-15T23:24:09.814Z,5.70
2018-03-15T23:26:39.882Z,5.70
2018-03-15T23:29:08.303Z,5.70
2018-03-15T23:31:36.598Z,5.70
2018-03-15T23:34:04.942Z,5.70
2018-03-15T23:36:34.226Z,5.80
2018-03-15T23:39:02.511Z,5.80
2018-03-15T23:41:30.767Z,5.80
2018-03-15T23:43:59.462Z,5.70
2018-03-15T23:46:28.025Z,5.70
2018-03-15T23:48:56.298Z,5.70
2018-03-15T23:51:25.611Z,5.80
2018-03-15T23:53:53.856Z,5.70
2018-03-15T23:56:22.115Z,5.70
2018-03-15T23:58:51.950Z,5.70
